Terminal Aerodrome Forecast
Issued by NWS Sioux Falls, SD

Home | Current Version | Previous Version | Text Only | Print | Product List | Glossary On
Versions: 1 2 3 4 5 6 7 8 9 10 11 12 13 14 15 16 17
973
FTUS43 KFSD 301406 AAA
TAFFSD
TAF AMD
KFSD 301406Z 3014/0112 04014G19KT P6SM -SHRA OVC024
     FM301700 03016G24KT 5SM RA BR OVC015
     FM010000 03018G26KT 3SM RA BR OVC012
     FM010400 01017G25KT 3SM RASN BR OVC008
     FM010700 01018G27KT 4SM -SN BR OVC008=

USA.gov is the U.S. government's official web portal to all federal, state and local government web resources and services.